Terminal Aerodrome Forecast
Issued by NWS Pendleton, OR

Home | Current Version | Previous Version | Text Only | Print | Product List | Glossary On
Versions: 1 2 3 4 5 6 7 8 9 10 11 12 13 14
000
FTUS46 KPDT 271100
TAFPDT
TAF
KPDT 271140Z 2712/2812 23009KT P6SM OVC090
     FM271500 21011KT P6SM OVC070
     FM272000 20009KT P6SM -SHRA OVC050
     FM280100 18008KT P6SM OVC050=

USA.gov is the U.S. government's official web portal to all federal, state and local government web resources and services.